GCY weather

Greeneville-Greene County Municipal Airport
Greeneville, Tennessee, United States

Public forecast

Using degrees Fahrenheit for public forecast. Weather courtesy of forecast.io.

Closest aviation weather report (METAR) to Greeneville-Greene County Municipal Airport

Closest report is Tri-Cities Regional TN/VA Airport, 26.0 nm (48.1 km) NE. Retrieved 2020/04/09 11:53 UTC (27 minutes ago):

KTRI 091153Z 00000KT 10SM FEW050 SCT150 12/11 A2969 RMK AO2 SLP034 60003 70006 T01220111 10156 20106 55003

Closest aviation forecast (TAF) to Greeneville-Greene County Municipal Airport

Closest forecast is Tri-Cities Regional TN/VA Airport, 26.0 nm (48.1 km) NE. Retrieved 2020/04/09 12:22 UTC (0 seconds ago):

TAF KTRI 091120Z 0912/1012 25007KT P6SM SCT120 FM091400 26020G30KT P6SM SCT150 FM091600 26025G35KT P6SM SCT200 FM100400 28022G32KT P6SM BKN050